aviador You're here:

LFBE Decoded Metar

BERGERAC in FRANCE
Report Time2018-06-17 23:30:00
UTC Time2018-06-17 23:52:04
Flight Rules vfr VFR
Wind240° at 03 kt
W.Decomp.*RWY 28: 2.3 kt HW 1.9 kt LCW
W.Rank240° ranks 10
Current wind is below 240° avg. (5.7)
Visibility9999 m
Phenomena:N/A
Clouds:N/A
Expected CloudBase > 400 ft AGL from Temp-Dew spread
CeilingNone
Temp13°C (ISA -2)
Dew Point12°C (94% RH)
AAT12.6°C
QNH1025 hPa
Density Alt-243 ft
Elevation171 ft
Report Wrong Elevation
Raw Report
LFBE 172330Z AUTO 24003KT CAVOK 13/12 Q1025 NOSIG=

Extra information for LFBE:More info

Metar Taf Metar & Taf Last 4 Metars F.Rules Stats Wind Profile Meteogram Temp Stats Airport Information Weather charts Add Link Nearby VenuesMetar ALERT Operation Metar Decoded Social comments